createdAt,value
2022-11-20T00:00:40.455Z,11.23
2022-11-20T00:03:06.980Z,10.45
2022-11-20T00:05:34.133Z,10.48
2022-11-20T00:08:00.660Z,11.15
2022-11-20T00:10:27.535Z,9.77
2022-11-20T00:12:54.089Z,11.87
2022-11-20T00:15:20.623Z,10.50
2022-11-20T00:17:47.441Z,11.05
2022-11-20T00:20:14.152Z,12.60
2022-11-20T00:22:40.715Z,11.00
2022-11-20T00:25:07.538Z,12.13
2022-11-20T00:27:34.101Z,11.00
2022-11-20T00:30:00.649Z,9.93
2022-11-20T00:32:27.205Z,10.20
2022-11-20T00:34:53.767Z,10.63
2022-11-20T00:37:20.325Z,10.07
2022-11-20T00:39:46.887Z,10.38
2022-11-20T00:42:13.683Z,9.95
2022-11-20T00:44:40.251Z,9.52
2022-11-20T00:47:06.809Z,9.98
2022-11-20T00:49:33.371Z,9.75
2022-11-20T00:51:59.902Z,9.25
2022-11-20T00:54:26.454Z,10.52
2022-11-20T00:56:55.873Z,11.32
2022-11-20T00:59:22.594Z,10.52
2022-11-20T01:01:49.235Z,10.65
2022-11-20T01:04:15.759Z,10.13
2022-11-20T01:06:42.335Z,10.73
2022-11-20T01:09:11.434Z,11.48
2022-11-20T01:11:39.632Z,11.27
2022-11-20T01:14:08.620Z,9.98
2022-11-20T01:16:46.289Z,11.05
2022-11-20T01:19:17.893Z,10.63
2022-11-20T01:21:45.633Z,12.40
2022-11-20T01:24:13.706Z,11.77
2022-11-20T01:26:40.999Z,12.75
2022-11-20T01:29:07.974Z,13.38
2022-11-20T01:31:35.854Z,12.73
2022-11-20T01:36:30.635Z,12.43
2022-11-20T01:38:58.739Z,12.48
2022-11-20T01:41:44.452Z,12.13
2022-11-20T01:44:12.364Z,12.25
2022-11-20T01:46:39.957Z,13.62
2022-11-20T01:49:17.845Z,14.13
2022-11-20T01:52:15.728Z,13.27
2022-11-20T01:54:48.469Z,13.45
2022-11-20T01:57:15.034Z,13.73
2022-11-20T01:59:45.067Z,13.38
2022-11-20T02:02:11.621Z,13.68
2022-11-20T02:04:38.214Z,13.70
2022-11-20T02:07:05.956Z,14.32
2022-11-20T02:11:58.962Z,12.70
2022-11-20T02:14:25.541Z,13.80
2022-11-20T02:16:52.096Z,13.32
2022-11-20T02:19:31.751Z,13.18
2022-11-20T02:22:29.764Z,13.73
2022-11-20T02:24:56.282Z,13.25
2022-11-20T02:27:23.297Z,14.45
2022-11-20T02:29:59.242Z,14.38
2022-11-20T02:32:30.569Z,13.90
2022-11-20T02:34:57.662Z,13.15
2022-11-20T02:37:24.515Z,14.13
2022-11-20T02:39:51.632Z,14.20
2022-11-20T02:42:18.496Z,13.80
2022-11-20T02:44:45.078Z,14.68
2022-11-20T02:47:11.668Z,12.18
2022-11-20T02:49:38.230Z,14.60
2022-11-20T02:52:04.892Z,12.98
2022-11-20T02:54:31.850Z,14.13
2022-11-20T02:56:58.379Z,14.10
2022-11-20T02:59:24.987Z,14.70
2022-11-20T03:01:51.556Z,13.20
2022-11-20T03:04:18.122Z,13.90
2022-11-20T03:06:44.679Z,13.60
2022-11-20T03:09:11.209Z,13.27
2022-11-20T03:11:37.767Z,13.30
2022-11-20T03:14:05.127Z,12.95
2022-11-20T03:16:31.843Z,13.93
2022-11-20T03:18:58.429Z,12.57
2022-11-20T03:21:24.997Z,13.35
2022-11-20T03:23:51.565Z,13.95
2022-11-20T03:26:22.786Z,14.18
2022-11-20T03:28:53.610Z,13.07
2022-11-20T03:31:22.607Z,12.30
2022-11-20T03:33:49.187Z,12.88
2022-11-20T03:36:16.878Z,12.50
2022-11-20T03:38:43.409Z,12.65
2022-11-20T03:41:14.748Z,12.15
2022-11-20T03:43:41.301Z,13.25
2022-11-20T03:46:08.007Z,13.57
2022-11-20T03:48:34.666Z,11.93
2022-11-20T03:51:14.465Z,12.68
2022-11-20T03:53:41.645Z,13.95
2022-11-20T03:56:08.851Z,12.70
2022-11-20T03:58:40.537Z,12.50
2022-11-20T04:01:12.517Z,13.55
2022-11-20T04:03:39.458Z,13.40
2022-11-20T04:06:07.228Z,11.53
2022-11-20T04:11:13.900Z,12.63
2022-11-20T04:13:40.934Z,12.63
2022-11-20T04:16:07.924Z,12.30
2022-11-20T04:18:34.589Z,12.27
2022-11-20T04:21:01.235Z,12.52
2022-11-20T04:23:28.928Z,12.00
2022-11-20T04:28:22.052Z,12.65
2022-11-20T04:30:48.619Z,12.20
2022-11-20T04:33:15.158Z,13.45
2022-11-20T04:35:41.732Z,12.60
2022-11-20T04:38:08.298Z,13.10
2022-11-20T04:40:34.847Z,12.85
2022-11-20T04:43:01.388Z,12.57
2022-11-20T04:45:27.937Z,12.57
2022-11-20T04:47:54.513Z,12.55
2022-11-20T04:50:21.069Z,11.75
2022-11-20T04:52:47.620Z,12.50
2022-11-20T04:55:14.443Z,12.25
2022-11-20T04:57:40.990Z,12.93
2022-11-20T05:00:08.058Z,12.85
2022-11-20T05:02:34.626Z,12.13
2022-11-20T05:05:01.218Z,11.45
2022-11-20T05:07:27.786Z,12.93
2022-11-20T05:09:54.464Z,12.40
2022-11-20T05:12:20.992Z,12.45
2022-11-20T05:14:47.520Z,13.52
2022-11-20T05:17:14.241Z,12.35
2022-11-20T05:19:40.787Z,13.07
2022-11-20T05:22:07.327Z,13.10
2022-11-20T05:24:33.920Z,12.75
2022-11-20T05:27:00.454Z,12.32
2022-11-20T05:29:26.995Z,12.52
2022-11-20T05:31:53.525Z,12.20
2022-11-20T05:34:20.115Z,12.05
2022-11-20T05:36:46.633Z,12.82
2022-11-20T05:39:13.249Z,13.20
2022-11-20T05:41:39.805Z,12.57
2022-11-20T05:44:06.338Z,13.07
2022-11-20T05:46:32.941Z,12.85
2022-11-20T05:48:59.626Z,13.30
2022-11-20T05:51:26.441Z,12.32
2022-11-20T05:53:52.997Z,11.95
2022-11-20T05:56:20.855Z,12.55
2022-11-20T06:01:24.713Z,11.32
2022-11-20T06:03:51.839Z,11.52
2022-11-20T06:06:18.829Z,11.82
2022-11-20T06:08:45.536Z,11.45
2022-11-20T06:11:13.125Z,12.45
2022-11-20T06:13:42.319Z,12.00
2022-11-20T06:16:09.565Z,12.15
2022-11-20T06:18:36.137Z,11.03
2022-11-20T06:21:09.328Z,10.73
2022-11-20T06:23:36.025Z,11.52
2022-11-20T06:26:09.882Z,11.88
2022-11-20T06:28:36.456Z,10.52
2022-11-20T06:31:03.188Z,11.55
2022-11-20T06:33:29.757Z,12.23
2022-11-20T06:36:01.788Z,10.98
2022-11-20T06:38:31.166Z,11.43
2022-11-20T06:40:57.717Z,10.40
2022-11-20T06:43:24.398Z,10.23
2022-11-20T06:45:54.959Z,10.65
2022-11-20T06:48:21.862Z,10.70
2022-11-20T06:50:48.407Z,10.20
2022-11-20T06:53:14.981Z,10.30
2022-11-20T06:55:45.461Z,10.65
2022-11-20T06:58:12.760Z,10.73
2022-11-20T07:00:39.339Z,10.10
2022-11-20T07:03:09.743Z,10.38
2022-11-20T07:05:36.513Z,10.82
2022-11-20T07:08:03.975Z,10.02
2022-11-20T07:10:30.517Z,10.50
2022-11-20T07:12:57.069Z,10.07
2022-11-20T07:15:24.316Z,10.40
2022-11-20T07:17:50.891Z,11.27
2022-11-20T07:20:17.590Z,10.38
2022-11-20T07:22:44.141Z,11.43
2022-11-20T07:25:10.731Z,10.27
2022-11-20T07:27:37.330Z,9.90
2022-11-20T07:30:04.753Z,12.15
2022-11-20T07:32:31.348Z,10.93
2022-11-20T07:34:57.879Z,11.75
2022-11-20T07:37:24.385Z,11.05
2022-11-20T07:39:50.942Z,11.20
2022-11-20T07:42:17.513Z,11.43
2022-11-20T07:44:44.069Z,11.88
2022-11-20T07:47:10.605Z,10.30
2022-11-20T07:49:37.140Z,10.75
2022-11-20T07:52:05.300Z,10.93
2022-11-20T07:54:32.457Z,11.63
2022-11-20T07:56:59.046Z,11.07
2022-11-20T07:59:25.636Z,11.52
2022-11-20T08:01:52.157Z,11.18
2022-11-20T08:04:18.721Z,11.55
2022-11-20T08:06:45.291Z,10.82
2022-11-20T08:09:11.857Z,11.88
2022-11-20T08:11:57.232Z,11.50
2022-11-20T08:14:23.793Z,11.68
2022-11-20T08:16:50.496Z,11.05
2022-11-20T08:19:18.621Z,11.35
2022-11-20T08:21:45.303Z,10.55
2022-11-20T08:24:12.049Z,10.65
2022-11-20T08:26:39.150Z,10.68
2022-11-20T08:29:05.862Z,11.27
2022-11-20T08:31:32.614Z,11.68
2022-11-20T08:33:59.248Z,11.57
2022-11-20T08:36:25.877Z,12.07
2022-11-20T08:38:55.933Z,11.70
2022-11-20T08:41:26.358Z,11.73
2022-11-20T08:43:54.709Z,13.15
2022-11-20T08:46:21.445Z,13.27
2022-11-20T08:48:47.994Z,12.90
2022-11-20T08:51:14.551Z,13.82
2022-11-20T08:53:41.152Z,11.88
2022-11-20T08:56:07.946Z,12.68
2022-11-20T08:58:49.134Z,11.63
2022-11-20T09:01:21.554Z,11.30
2022-11-20T09:03:48.279Z,10.57
2022-11-20T09:06:15.021Z,11.10
2022-11-20T09:08:41.561Z,10.82
2022-11-20T09:11:08.114Z,11.00
2022-11-20T09:13:35.411Z,10.63
2022-11-20T09:16:08.764Z,11.00
2022-11-20T09:18:38.241Z,10.68
2022-11-20T09:21:11.728Z,10.27
2022-11-20T09:23:38.463Z,12.00
2022-11-20T09:26:06.041Z,10.68
2022-11-20T09:28:32.786Z,11.63
2022-11-20T09:31:00.160Z,11.30
2022-11-20T09:33:27.041Z,11.15
2022-11-20T09:35:53.694Z,10.55
2022-11-20T09:38:20.288Z,12.00
2022-11-20T09:40:52.597Z,11.02
2022-11-20T09:43:21.823Z,11.15
2022-11-20T09:46:08.982Z,12.23
2022-11-20T09:48:44.642Z,12.80
2022-11-20T09:51:28.217Z,11.85
2022-11-20T09:54:13.435Z,11.45
2022-11-20T09:56:41.425Z,12.57
2022-11-20T09:59:08.729Z,11.50
2022-11-20T10:01:36.854Z,12.50
2022-11-20T10:04:05.556Z,13.50
2022-11-20T10:06:33.768Z,13.75
2022-11-20T10:09:12.301Z,13.07
2022-11-20T10:14:19.788Z,13.02
2022-11-20T10:17:06.377Z,13.57
2022-11-20T10:19:44.888Z,13.13
2022-11-20T10:24:54.084Z,12.80
2022-11-20T10:27:42.464Z,12.95
2022-11-20T10:30:10.674Z,14.02
2022-11-20T10:32:42.450Z,15.20
2022-11-20T10:35:23.044Z,13.93
2022-11-20T10:37:59.103Z,13.45
2022-11-20T10:40:36.061Z,14.87
2022-11-20T10:43:13.344Z,14.25
2022-11-20T10:46:04.707Z,14.63
2022-11-20T10:48:32.077Z,14.23
2022-11-20T10:51:01.405Z,14.05
2022-11-20T10:53:53.506Z,14.13
2022-11-20T10:56:33.974Z,12.57
2022-11-20T10:59:06.053Z,12.98
2022-11-20T11:01:32.649Z,12.98
2022-11-20T11:03:59.244Z,11.75
2022-11-20T11:06:31.760Z,12.35
2022-11-20T11:08:59.870Z,12.43
2022-11-20T11:11:33.872Z,12.73
2022-11-20T11:14:07.750Z,12.63
2022-11-20T11:16:34.589Z,11.93
2022-11-20T11:19:27.166Z,12.18
2022-11-20T11:21:56.107Z,11.70
2022-11-20T11:24:41.746Z,12.65
2022-11-20T11:27:16.808Z,13.60
2022-11-20T11:29:44.059Z,12.60
2022-11-20T11:32:21.661Z,12.63
2022-11-20T11:35:22.020Z,12.47
2022-11-20T11:37:49.262Z,12.88
2022-11-20T11:40:23.790Z,11.70
2022-11-20T11:42:57.759Z,12.18
2022-11-20T11:45:24.337Z,12.88
2022-11-20T11:47:52.428Z,12.50
2022-11-20T11:50:23.353Z,11.80
2022-11-20T11:53:11.655Z,11.65
2022-11-20T11:55:57.867Z,12.30
2022-11-20T11:58:30.249Z,13.07
2022-11-20T12:01:36.098Z,12.35
2022-11-20T12:04:06.999Z,12.40
2022-11-20T12:06:34.030Z,11.82
2022-11-20T12:09:05.527Z,11.30
2022-11-20T12:11:52.440Z,11.68
2022-11-20T12:14:50.013Z,10.50
2022-11-20T12:17:16.721Z,10.13
2022-11-20T12:19:43.290Z,12.00
2022-11-20T12:22:34.658Z,12.43
2022-11-20T12:25:12.971Z,12.98
2022-11-20T12:28:01.396Z,13.18
2022-11-20T12:30:28.051Z,12.75
2022-11-20T12:33:03.493Z,12.70
2022-11-20T12:35:41.984Z,13.13
2022-11-20T12:41:51.315Z,12.37
2022-11-20T12:44:52.038Z,13.73
2022-11-20T12:47:25.975Z,13.50
2022-11-20T12:50:08.207Z,14.48
2022-11-20T12:52:46.662Z,12.45
2022-11-20T12:57:59.480Z,12.15
2022-11-20T13:00:26.176Z,11.75
2022-11-20T13:03:11.346Z,10.97
2022-11-20T13:06:05.356Z,12.63
2022-11-20T13:08:36.583Z,11.25
2022-11-20T13:11:08.386Z,12.32
2022-11-20T13:13:59.083Z,11.80
2022-11-20T13:16:44.208Z,11.45
2022-11-20T13:19:14.197Z,10.90
2022-11-20T13:21:42.968Z,10.95
2022-11-20T13:24:31.139Z,10.75
2022-11-20T13:27:22.049Z,11.60
2022-11-20T13:30:11.758Z,10.90
2022-11-20T13:32:43.697Z,11.48
2022-11-20T13:35:10.263Z,11.60
2022-11-20T13:37:37.852Z,11.48
2022-11-20T13:40:14.169Z,12.10
2022-11-20T13:42:43.569Z,11.45
2022-11-20T13:45:12.386Z,12.88
2022-11-20T13:47:38.941Z,12.30
2022-11-20T13:50:05.818Z,13.18
2022-11-20T13:52:50.588Z,13.90
2022-11-20T13:55:22.230Z,13.15
2022-11-20T13:57:52.489Z,13.88
2022-11-20T14:00:20.497Z,11.85
2022-11-20T14:03:16.652Z,12.13
2022-11-20T14:06:14.722Z,13.13
2022-11-20T14:08:43.687Z,13.20
2022-11-20T14:11:29.431Z,14.07
2022-11-20T14:14:24.823Z,14.90
2022-11-20T14:16:52.160Z,12.75
2022-11-20T14:19:21.126Z,13.73
2022-11-20T14:21:48.579Z,13.43
2022-11-20T14:24:15.288Z,12.93
2022-11-20T14:26:45.173Z,12.65
2022-11-20T14:29:15.342Z,12.30
2022-11-20T14:31:41.848Z,12.45
2022-11-20T14:34:28.862Z,13.00
2022-11-20T14:37:07.049Z,12.75
2022-11-20T14:39:37.258Z,12.95
2022-11-20T14:42:23.297Z,12.48
2022-11-20T14:44:50.592Z,13.20
2022-11-20T14:47:20.014Z,13.45
2022-11-20T14:49:46.594Z,13.60
2022-11-20T14:52:12.952Z,13.95
2022-11-20T14:54:50.202Z,12.88
2022-11-20T14:57:25.502Z,13.25
2022-11-20T14:59:52.065Z,14.15
2022-11-20T15:02:18.672Z,12.73
2022-11-20T15:04:57.810Z,13.88
2022-11-20T15:07:26.079Z,13.38
2022-11-20T15:10:09.128Z,12.95
2022-11-20T15:12:47.240Z,13.20
2022-11-20T15:15:13.840Z,13.50
2022-11-20T15:17:40.409Z,13.07
2022-11-20T15:20:10.809Z,13.38
2022-11-20T15:22:37.367Z,13.40
2022-11-20T15:25:12.441Z,12.80
2022-11-20T15:27:38.990Z,13.57
2022-11-20T15:30:16.224Z,14.35
2022-11-20T15:32:43.204Z,13.77
2022-11-20T15:35:10.679Z,12.83
2022-11-20T15:37:40.316Z,13.52
2022-11-20T15:40:07.439Z,12.55
2022-11-20T15:42:34.208Z,14.20
2022-11-20T15:45:01.140Z,12.30
2022-11-20T15:47:35.577Z,14.37
2022-11-20T15:50:02.166Z,12.57
2022-11-20T15:52:36.346Z,12.73
2022-11-20T15:55:11.066Z,13.07
2022-11-20T15:57:37.634Z,13.18
2022-11-20T16:00:04.654Z,13.13
2022-11-20T16:02:31.186Z,13.93
2022-11-20T16:04:57.721Z,12.98
2022-11-20T16:07:24.594Z,13.30
2022-11-20T16:09:51.175Z,13.23
2022-11-20T16:12:37.634Z,12.77
2022-11-20T16:15:23.366Z,13.43
2022-11-20T16:17:49.924Z,13.43
2022-11-20T16:20:16.483Z,12.37
2022-11-20T16:22:43.016Z,12.60
2022-11-20T16:25:09.532Z,13.43
2022-11-20T16:27:36.064Z,14.20
2022-11-20T16:30:02.631Z,14.10
2022-11-20T16:32:29.198Z,13.38
2022-11-20T16:34:55.748Z,14.13
2022-11-20T16:37:22.289Z,13.95
2022-11-20T16:39:48.812Z,13.45
2022-11-20T16:42:15.363Z,15.10
2022-11-20T16:44:41.929Z,14.52
2022-11-20T16:47:08.454Z,13.77
2022-11-20T16:49:35.095Z,13.75
2022-11-20T16:52:01.656Z,14.65
2022-11-20T16:54:28.285Z,13.85
2022-11-20T16:56:54.838Z,14.80
2022-11-20T16:59:21.425Z,13.57
2022-11-20T17:01:48.058Z,14.87
2022-11-20T17:04:14.784Z,13.23
2022-11-20T17:06:44.197Z,13.65
2022-11-20T17:09:10.786Z,12.60
2022-11-20T17:11:37.418Z,13.45
2022-11-20T17:14:04.036Z,15.55
2022-11-20T17:16:30.845Z,15.18
2022-11-20T17:19:02.594Z,15.32
2022-11-20T17:21:30.197Z,13.77
2022-11-20T17:23:59.928Z,13.30
2022-11-20T17:26:28.270Z,12.27
2022-11-20T17:28:57.158Z,16.73
2022-11-20T17:31:23.717Z,16.17
2022-11-20T17:33:50.285Z,12.90
2022-11-20T17:36:17.599Z,14.32
2022-11-20T17:38:44.577Z,14.02
2022-11-20T17:41:12.834Z,14.25
2022-11-20T17:43:39.539Z,15.25
2022-11-20T17:46:13.793Z,14.63
2022-11-20T17:48:44.201Z,13.55
2022-11-20T17:51:12.484Z,14.60
2022-11-20T17:53:40.200Z,13.60
2022-11-20T17:56:25.535Z,13.95
2022-11-20T17:58:52.121Z,13.30
2022-11-20T18:01:18.816Z,13.77
2022-11-20T18:03:45.482Z,14.63
2022-11-20T18:06:16.651Z,14.05
2022-11-20T18:08:43.278Z,13.32
2022-11-20T18:11:17.509Z,13.20
2022-11-20T18:14:08.500Z,14.32
2022-11-20T18:16:37.374Z,14.10
2022-11-20T18:19:03.940Z,14.05
2022-11-20T18:21:30.750Z,13.50
2022-11-20T18:23:57.662Z,14.20
2022-11-20T18:26:24.298Z,12.87
2022-11-20T18:28:51.233Z,12.80
2022-11-20T18:31:17.766Z,14.27
2022-11-20T18:33:44.343Z,13.45
2022-11-20T18:36:24.324Z,14.02
2022-11-20T18:38:51.885Z,13.70
2022-11-20T18:41:38.297Z,14.87
2022-11-20T18:44:24.713Z,14.00
2022-11-20T18:46:51.376Z,13.40
2022-11-20T18:49:18.151Z,13.65
2022-11-20T18:51:44.796Z,14.98
2022-11-20T18:54:11.779Z,14.68
2022-11-20T18:56:38.451Z,14.23
2022-11-20T18:59:06.206Z,16.33
2022-11-20T19:01:32.834Z,15.05
2022-11-20T19:03:59.585Z,16.90
2022-11-20T19:06:26.230Z,16.40
2022-11-20T19:08:53.050Z,16.45
2022-11-20T19:11:19.667Z,17.83
2022-11-20T19:13:46.812Z,17.95
2022-11-20T19:16:18.078Z,17.37
2022-11-20T19:18:44.920Z,17.30
2022-11-20T19:21:12.931Z,17.85
2022-11-20T19:23:39.597Z,17.87
2022-11-20T19:26:06.478Z,19.65
2022-11-20T19:28:33.764Z,18.93
2022-11-20T19:31:10.070Z,18.42
2022-11-20T19:33:36.848Z,17.75
2022-11-20T19:36:19.821Z,18.45
2022-11-20T19:38:48.157Z,18.90
2022-11-20T19:41:15.148Z,18.42
2022-11-20T19:43:41.744Z,20.33
2022-11-20T19:46:08.335Z,19.45
2022-11-20T19:48:36.333Z,19.58
2022-11-20T19:51:13.649Z,19.00
2022-11-20T19:53:40.243Z,19.85
2022-11-20T19:56:06.949Z,18.50
2022-11-20T19:58:33.523Z,17.35
2022-11-20T20:01:13.484Z,17.48
2022-11-20T20:03:40.192Z,17.12
2022-11-20T20:06:08.355Z,16.30
2022-11-20T20:08:34.921Z,15.40
2022-11-20T20:11:01.556Z,16.05
2022-11-20T20:13:28.220Z,14.32
2022-11-20T20:15:54.765Z,13.88
2022-11-20T20:18:21.311Z,13.18
2022-11-20T20:20:47.829Z,13.10
2022-11-20T20:23:14.409Z,14.68
2022-11-20T20:25:40.937Z,13.18
2022-11-20T20:28:07.482Z,14.98
2022-11-20T20:30:35.595Z,15.32
2022-11-20T20:33:02.138Z,13.68
2022-11-20T20:35:28.721Z,14.82
2022-11-20T20:37:55.320Z,14.18
2022-11-20T20:40:21.962Z,14.70
2022-11-20T20:42:48.572Z,15.10
2022-11-20T20:45:15.212Z,15.20
2022-11-20T20:47:42.101Z,14.77
2022-11-20T20:50:10.339Z,16.20
2022-11-20T20:52:36.938Z,16.58
2022-11-20T20:55:03.916Z,16.33
2022-11-20T20:57:30.502Z,16.67
2022-11-20T20:59:57.064Z,17.83
2022-11-20T21:02:23.958Z,17.00
2022-11-20T21:04:50.540Z,16.17
2022-11-20T21:07:17.482Z,17.33
2022-11-20T21:09:44.096Z,17.97
2022-11-20T21:12:10.684Z,16.65
2022-11-20T21:14:37.257Z,16.83
2022-11-20T21:17:03.805Z,16.45
2022-11-20T21:19:30.391Z,16.75
2022-11-20T21:21:59.464Z,17.10
2022-11-20T21:24:26.285Z,18.10
2022-11-20T21:26:52.970Z,18.80
2022-11-20T21:29:20.511Z,18.33
2022-11-20T21:31:47.255Z,18.60
2022-11-20T21:34:13.989Z,18.35
2022-11-20T21:36:40.508Z,17.73
2022-11-20T21:39:07.505Z,17.33
2022-11-20T21:41:34.140Z,17.85
2022-11-20T21:44:30.558Z,17.23
2022-11-20T21:46:47.856Z,17.87
2022-11-20T21:49:15.303Z,18.83
2022-11-20T21:51:41.945Z,17.23
2022-11-20T21:54:09.609Z,18.08
2022-11-20T21:56:36.175Z,18.62
2022-11-20T21:59:02.712Z,17.52
2022-11-20T22:01:29.976Z,17.67
2022-11-20T22:03:58.121Z,16.87
2022-11-20T22:06:25.541Z,14.75
2022-11-20T22:08:52.155Z,14.80
2022-11-20T22:11:20.116Z,17.42
2022-11-20T22:14:05.394Z,17.00
2022-11-20T22:16:33.876Z,18.98
2022-11-20T22:19:00.449Z,17.67
2022-11-20T22:21:28.419Z,16.75
2022-11-20T22:23:55.136Z,18.75
2022-11-20T22:26:34.957Z,16.83
2022-11-20T22:29:03.948Z,18.40
2022-11-20T22:31:30.733Z,18.15
2022-11-20T22:33:57.715Z,17.50
2022-11-20T22:36:25.556Z,18.10
2022-11-20T22:41:20.157Z,17.52
2022-11-20T22:43:46.865Z,18.35
2022-11-20T22:46:19.637Z,17.65
2022-11-20T22:48:50.799Z,18.62
2022-11-20T22:51:17.850Z,18.73
2022-11-20T22:53:44.431Z,18.62
2022-11-20T22:56:14.461Z,19.48
2022-11-20T22:58:43.049Z,19.90
2022-11-20T23:01:13.104Z,18.83
2022-11-20T23:03:40.362Z,19.80
2022-11-20T23:06:07.294Z,18.37
2022-11-20T23:08:33.945Z,19.60
2022-11-20T23:11:07.545Z,19.33
2022-11-20T23:13:34.189Z,19.45
2022-11-20T23:16:11.333Z,18.92
2022-11-20T23:18:37.901Z,19.85
2022-11-20T23:21:12.582Z,21.00
2022-11-20T23:23:39.157Z,19.12
2022-11-20T23:26:07.236Z,21.37
2022-11-20T23:28:33.889Z,21.37
2022-11-20T23:31:01.055Z,21.52
2022-11-20T23:33:27.589Z,23.12
2022-11-20T23:35:54.185Z,23.40
2022-11-20T23:38:20.756Z,23.65
2022-11-20T23:40:48.417Z,24.20
2022-11-20T23:43:18.644Z,22.55
2022-11-20T23:45:55.388Z,23.45
2022-11-20T23:48:22.949Z,23.17
2022-11-20T23:50:49.493Z,21.92
2022-11-20T23:53:16.277Z,23.50
2022-11-20T23:55:50.022Z,22.15
2022-11-20T23:58:16.608Z,22.80
